Time;durP1;ratioP1;P1;durP2;ratioP2;P2;SDS_P1;SDS_P2;PMS_P1;PMS_P2;Temp;Humidity;BMP_temperature;BMP_pressure;BME280_temperature;BME280_humidity;BME280_pressure;Samples;Min_cycle;Max_cycle;Signal;HPM_P1;HPM_P2
2023/09/10 00:01:08;;;;;;;41.40;32.43;;;;;;;-145.18;100.00;46660.41;5083858;28;20070;-61
2023/09/10 00:03:34;;;;;;;42.53;30.23;;;;;;;-145.18;100.00;46660.41;5083538;28;20051;-61
2023/09/10 00:06:01;;;;;;;40.97;31.33;;;;;;;-145.18;100.00;46658.44;5083406;28;20032;-61
2023/09/10 00:08:27;;;;;;;40.80;31.13;;;;;;;-145.18;100.00;46658.44;5080332;28;20036;-61
2023/09/10 00:10:54;;;;;;;39.13;31.03;;;;;;;-145.18;100.00;46658.44;5090462;28;20103;-61
2023/09/10 00:13:20;;;;;;;39.30;30.17;;;;;;;-145.18;100.00;46660.41;5098770;28;20054;-61
2023/09/10 00:15:45;;;;;;;41.07;31.33;;;;;;;-145.18;100.00;46658.44;5092217;28;20476;-61
2023/09/10 00:18:11;;;;;;;36.70;31.07;;;;;;;-145.18;100.00;46658.44;5089535;28;20066;-61
2023/09/10 00:20:37;;;;;;;37.97;30.83;;;;;;;-145.18;100.00;46658.44;5085312;28;20407;-61
2023/09/10 00:23:03;;;;;;;37.90;29.57;;;;;;;-145.18;100.00;46660.41;5087170;28;20032;-61
2023/09/10 00:25:29;;;;;;;37.57;29.73;;;;;;;-145.18;100.00;46660.41;5084418;28;20044;-61
2023/09/10 00:27:56;;;;;;;38.33;29.70;;;;;;;-145.18;100.00;46660.41;5088430;28;20050;-61
2023/09/10 00:30:22;;;;;;;39.03;31.17;;;;;;;-145.18;100.00;46660.41;5107026;28;20042;-61
2023/09/10 00:32:47;;;;;;;41.93;32.37;;;;;;;-145.18;100.00;46660.41;5093961;28;20028;-61
2023/09/10 00:35:13;;;;;;;40.60;31.20;;;;;;;-145.18;100.00;46652.59;5114389;27;20042;-61
2023/09/10 00:37:38;;;;;;;41.43;30.50;;;;;;;-145.18;100.00;46660.41;5090836;28;20055;-61
2023/09/10 00:40:05;;;;;;;35.10;29.87;;;;;;;-145.18;100.00;46658.44;5088670;28;20056;-61
2023/09/10 00:42:30;;;;;;;41.50;31.87;;;;;;;-145.18;100.00;46660.41;5081580;28;20028;-61
2023/09/10 00:44:56;;;;;;;37.67;30.93;;;;;;;-145.18;100.00;46660.41;5093198;28;20028;-61
2023/09/10 00:47:22;;;;;;;37.93;29.63;;;;;;;-145.18;100.00;46660.41;5090669;28;20780;-61
2023/09/10 00:49:49;;;;;;;38.40;30.33;;;;;;;-145.18;100.00;46660.41;5092523;28;20036;-61
2023/09/10 00:52:16;;;;;;;36.33;31.27;;;;;;;-145.18;100.00;46660.41;5091031;28;20094;-61
2023/09/10 00:54:42;;;;;;;35.23;30.40;;;;;;;-145.18;100.00;46660.41;5090263;28;20027;-61
2023/09/10 00:57:07;;;;;;;35.77;29.70;;;;;;;-145.18;100.00;46658.44;5089082;28;20032;-61
2023/09/10 00:59:34;;;;;;;39.30;31.00;;;;;;;-145.18;100.00;46660.41;5089882;28;20387;-61
2023/09/10 01:02:00;;;;;;;41.23;30.43;;;;;;;-145.18;100.00;46660.41;5087321;28;20036;-61
2023/09/10 01:04:25;;;;;;;37.50;30.03;;;;;;;-145.18;100.00;46660.41;5088595;28;20030;-61
2023/09/10 01:06:52;;;;;;;42.63;30.07;;;;;;;-145.18;100.00;46660.41;5089546;28;20415;-61
2023/09/10 01:09:17;;;;;;;38.03;30.77;;;;;;;-145.18;100.00;46660.41;5089082;28;20437;-60
2023/09/10 01:11:49;;;;;;;39.00;29.17;;;;;;;-145.18;100.00;46660.41;5086940;28;20093;-61
2023/09/10 01:14:28;;;;;;;37.83;30.53;;;;;;;-145.18;100.00;46660.41;5104320;28;20107;-60
2023/09/10 01:16:59;;;;;;;38.30;29.53;;;;;;;-145.18;100.00;46660.41;5088873;28;20024;-61
2023/09/10 01:19:30;;;;;;;38.50;30.00;;;;;;;-145.18;100.00;46660.41;5088773;28;20032;-61
2023/09/10 01:22:05;;;;;;;43.17;30.50;;;;;;;-145.18;100.00;46660.41;5102517;28;20032;-61
2023/09/10 01:24:48;;;;;;;40.60;30.53;;;;;;;-145.18;100.00;46660.41;5092121;28;20127;-61
2023/09/10 01:27:14;;;;;;;39.30;30.60;;;;;;;-145.18;100.00;46660.41;5082023;28;20067;-61
2023/09/10 01:29:40;;;;;;;44.90;31.00;;;;;;;-145.18;100.00;46660.41;5090583;28;20032;-61
2023/09/10 01:32:11;;;;;;;36.70;29.07;;;;;;;-145.18;100.00;46660.41;5088876;28;20368;-61
2023/09/10 01:34:41;;;;;;;41.43;31.30;;;;;;;-145.18;100.00;46660.41;5080865;28;20020;-64
2023/09/10 01:37:36;;;;;;;40.33;29.50;;;;;;;-145.18;100.00;46658.44;5083195;28;20036;-63
2023/09/10 01:40:08;;;;;;;40.00;31.50;;;;;;;-145.18;100.00;46660.41;5077732;28;20487;-63
2023/09/10 01:42:35;;;;;;;40.67;29.50;;;;;;;-145.18;100.00;46660.41;5079071;28;20025;-63
2023/09/10 01:45:02;;;;;;;41.00;31.30;;;;;;;-145.18;100.00;46658.44;5078939;28;20032;-63
2023/09/10 01:47:27;;;;;;;41.37;30.43;;;;;;;-145.18;100.00;46660.41;5079736;28;20395;-63
2023/09/10 01:49:53;;;;;;;37.00;30.07;;;;;;;-145.18;100.00;46660.41;5082783;28;20480;-63
2023/09/10 01:52:18;;;;;;;38.97;30.13;;;;;;;-145.18;100.00;46660.41;5072527;28;20063;-63
2023/09/10 01:54:44;;;;;;;38.17;30.17;;;;;;;-145.18;100.00;46660.41;5092039;28;20036;-63
2023/09/10 01:57:10;;;;;;;35.00;27.90;;;;;;;-145.18;100.00;46660.41;5089091;28;20155;-63
2023/09/10 01:59:36;;;;;;;37.20;28.70;;;;;;;-145.18;100.00;46660.41;5084021;28;20467;-63
2023/09/10 02:02:01;;;;;;;39.47;27.90;;;;;;;-145.18;100.00;46660.41;5080800;28;20064;-63
2023/09/10 02:04:26;;;;;;;39.27;29.40;;;;;;;-145.18;100.00;46660.41;5091584;28;20036;-63
2023/09/10 02:06:52;;;;;;;35.40;28.03;;;;;;;-145.18;100.00;46660.41;5078082;28;20021;-63
2023/09/10 02:09:17;;;;;;;36.87;28.30;;;;;;;-145.18;100.00;46660.41;5083452;28;20106;-63
2023/09/10 02:11:42;;;;;;;34.83;28.33;;;;;;;-145.18;100.00;46660.41;5075613;28;20460;-64
2023/09/10 02:14:08;;;;;;;37.60;28.83;;;;;;;-145.18;100.00;46660.41;5078084;28;20101;-63
2023/09/10 02:16:33;;;;;;;34.47;27.50;;;;;;;-145.18;100.00;46656.50;5082162;28;20027;-64
2023/09/10 02:18:59;;;;;;;34.83;28.30;;;;;;;-145.18;100.00;46660.41;5088323;28;20418;-64
2023/09/10 02:21:24;;;;;;;41.23;28.43;;;;;;;-145.18;100.00;46660.41;5087112;28;20498;-64
2023/09/10 02:23:49;;;;;;;35.77;28.30;;;;;;;-145.18;100.00;46660.41;5087257;28;20067;-63
2023/09/10 02:26:15;;;;;;;35.97;28.87;;;;;;;-145.18;100.00;46660.41;5089133;28;20059;-64
2023/09/10 02:28:41;;;;;;;35.03;28.30;;;;;;;-145.18;100.00;46660.41;5080690;28;20025;-64
2023/09/10 02:31:07;;;;;;;32.40;26.67;;;;;;;-145.18;100.00;46658.44;5074824;28;20038;-63
2023/09/10 02:33:33;;;;;;;35.57;27.00;;;;;;;-145.18;100.00;46660.41;5088853;28;20402;-63
2023/09/10 02:35:59;;;;;;;40.43;29.03;;;;;;;-145.18;100.00;46660.41;5078636;28;20440;-63
2023/09/10 02:38:24;;;;;;;36.07;29.57;;;;;;;-145.18;100.00;46660.41;5084391;28;20111;-63
2023/09/10 02:40:50;;;;;;;37.53;28.83;;;;;;;-145.18;100.00;46660.41;5083495;28;20046;-63
2023/09/10 02:43:15;;;;;;;36.33;29.47;;;;;;;-145.18;100.00;46660.41;5072541;28;20033;-61
2023/09/10 02:45:41;;;;;;;38.37;28.60;;;;;;;-145.18;100.00;46660.41;5072813;28;20036;-61
2023/09/10 02:48:06;;;;;;;34.43;27.33;;;;;;;-145.18;100.00;46658.44;5080930;28;20514;-61
2023/09/10 02:50:31;;;;;;;34.70;28.97;;;;;;;-145.18;100.00;46658.44;5091317;28;20396;-61
2023/09/10 02:52:57;;;;;;;37.97;28.37;;;;;;;-145.18;100.00;46660.41;5084968;28;20109;-61
2023/09/10 02:55:22;;;;;;;33.93;27.67;;;;;;;-145.18;100.00;46660.41;5085279;28;20035;-61
2023/09/10 02:57:48;;;;;;;38.07;28.43;;;;;;;-145.18;100.00;46660.41;5090065;28;20024;-61
2023/09/10 03:00:14;;;;;;;33.70;26.70;;;;;;;-145.18;100.00;46660.41;5089659;28;20039;-61
2023/09/10 03:02:39;;;;;;;34.03;27.17;;;;;;;-145.18;100.00;46660.41;5091473;28;20103;-61
2023/09/10 03:05:05;;;;;;;36.97;28.47;;;;;;;-145.18;100.00;46660.41;5110571;28;20033;-61
2023/09/10 03:07:32;;;;;;;40.03;28.10;;;;;;;-145.18;100.00;46660.41;5084245;28;20025;-61
2023/09/10 03:09:57;;;;;;;40.03;29.47;;;;;;;-145.18;100.00;46656.50;5073162;28;20114;-61
2023/09/10 03:12:27;;;;;;;35.30;28.23;;;;;;;-145.18;100.00;46660.41;5077068;28;20107;-61
2023/09/10 03:14:54;;;;;;;39.43;30.47;;;;;;;-145.18;100.00;46660.41;5078157;28;20028;-61
2023/09/10 03:17:19;;;;;;;38.80;29.80;;;;;;;-145.18;100.00;46658.44;5072577;28;20060;-61
2023/09/10 03:19:45;;;;;;;38.73;30.07;;;;;;;-145.18;100.00;46658.44;5071850;28;20097;-61
2023/09/10 03:22:11;;;;;;;36.97;28.37;;;;;;;-145.18;100.00;46656.50;5087109;28;20031;-61
2023/09/10 03:24:37;;;;;;;38.47;30.07;;;;;;;-145.18;100.00;46654.53;5078084;28;20412;-61
2023/09/10 03:27:03;;;;;;;42.87;30.70;;;;;;;-145.18;100.00;46660.41;5077706;28;20035;-61
2023/09/10 03:29:28;;;;;;;41.87;30.40;;;;;;;-145.18;100.00;46658.44;5091596;28;20032;-61
2023/09/10 03:31:54;;;;;;;40.40;31.07;;;;;;;-145.18;100.00;46660.41;5093844;28;20531;-61
2023/09/10 03:34:19;;;;;;;42.97;32.03;;;;;;;-145.18;100.00;46656.50;5082985;28;20630;-61
2023/09/10 03:36:45;;;;;;;39.03;31.57;;;;;;;-145.18;100.00;46652.59;5092236;28;20020;-61
2023/09/10 03:39:10;;;;;;;44.33;32.37;;;;;;;-145.18;100.00;46656.50;5094147;28;20035;-61
2023/09/10 03:41:35;;;;;;;40.03;30.73;;;;;;;-145.18;100.00;46660.41;5081678;28;20028;-61
2023/09/10 03:44:02;;;;;;;43.03;31.80;;;;;;;-145.18;100.00;46656.50;5094460;28;20036;-61
2023/09/10 03:46:27;;;;;;;43.37;31.87;;;;;;;-145.18;100.00;46656.50;5088849;28;20507;-61
2023/09/10 03:48:53;;;;;;;43.87;32.50;;;;;;;-145.18;100.00;46656.50;5092253;28;20028;-61
2023/09/10 03:51:18;;;;;;;42.73;33.20;;;;;;;-145.18;100.00;46652.59;5091706;28;20031;-61
2023/09/10 03:53:44;;;;;;;41.03;32.20;;;;;;;-145.18;100.00;46658.44;5093763;28;20559;-61
2023/09/10 03:56:09;;;;;;;44.07;33.00;;;;;;;-145.18;100.00;46656.50;5088254;28;20038;-61
2023/09/10 03:58:34;;;;;;;46.23;33.90;;;;;;;-145.18;100.00;46656.50;5094928;28;20438;-61
2023/09/10 04:01:00;;;;;;;42.57;33.17;;;;;;;-145.18;100.00;46658.44;5092009;28;20036;-61
2023/09/10 04:03:26;;;;;;;44.73;32.90;;;;;;;-145.18;100.00;46656.50;5090223;28;20055;-61
2023/09/10 04:05:54;;;;;;;43.20;31.63;;;;;;;-145.18;100.00;46658.44;5090335;28;20036;-61
2023/09/10 04:08:20;;;;;;;45.10;33.13;;;;;;;-145.18;100.00;46652.59;5084813;28;20029;-61
2023/09/10 04:10:45;;;;;;;48.53;33.77;;;;;;;-145.18;100.00;46654.53;5094803;28;20100;-61
2023/09/10 04:13:11;;;;;;;56.63;34.23;;;;;;;-145.18;100.00;46656.50;5082340;28;20054;-61
2023/09/10 04:15:36;;;;;;;45.60;33.70;;;;;;;-145.18;100.00;46652.59;5092355;28;20024;-61
2023/09/10 04:18:05;;;;;;;46.87;34.60;;;;;;;-145.18;100.00;46656.50;5088094;28;20029;-61
2023/09/10 04:20:31;;;;;;;45.03;35.13;;;;;;;-145.18;100.00;46642.81;5083778;28;20051;-61
2023/09/10 04:22:56;;;;;;;46.53;34.57;;;;;;;-145.18;100.00;46654.53;5097818;28;20495;-61
2023/09/10 04:25:22;;;;;;;47.70;35.20;;;;;;;-145.18;100.00;46652.59;5085092;28;20504;-61
2023/09/10 04:27:47;;;;;;;46.53;34.43;;;;;;;-145.18;100.00;46654.53;5092612;28;20115;-61
2023/09/10 04:30:13;;;;;;;44.43;34.90;;;;;;;-145.18;100.00;46650.63;5093723;28;20043;-61
2023/09/10 04:32:38;;;;;;;43.73;33.00;;;;;;;-145.18;100.00;46652.59;5089341;28;20483;-61
2023/09/10 04:35:05;;;;;;;45.63;33.97;;;;;;;-145.18;100.00;46656.50;5083175;28;20503;-61
2023/09/10 04:37:30;;;;;;;48.97;35.90;;;;;;;-145.18;100.00;46650.63;5125439;27;20036;-61
2023/09/10 04:39:56;;;;;;;47.83;35.57;;;;;;;-145.18;100.00;46654.53;5092546;28;20032;-61
2023/09/10 04:42:21;;;;;;;47.47;35.57;;;;;;;-145.18;100.00;46656.50;5090835;28;20051;-61
2023/09/10 04:44:48;;;;;;;49.53;36.33;;;;;;;-145.18;100.00;46650.63;5116053;27;20416;-61
2023/09/10 04:47:13;;;;;;;49.23;35.73;;;;;;;-145.18;100.00;46652.59;5086121;28;20053;-61
2023/09/10 04:49:39;;;;;;;53.07;35.70;;;;;;;-145.18;100.00;46652.59;5092336;28;20483;-61
2023/09/10 04:52:04;;;;;;;49.73;37.53;;;;;;;-145.18;100.00;46650.63;5094905;28;20533;-61
2023/09/10 04:54:30;;;;;;;56.60;38.17;;;;;;;-145.18;100.00;46654.53;5080841;28;20028;-61
2023/09/10 04:56:55;;;;;;;52.50;37.50;;;;;;;-145.18;100.00;46652.59;5085723;28;20032;-61
2023/09/10 04:59:21;;;;;;;46.33;36.00;;;;;;;-145.18;100.00;46650.63;5093089;28;20031;-61
2023/09/10 05:01:47;;;;;;;49.67;36.37;;;;;;;-145.18;100.00;46654.53;5086058;28;20028;-61
2023/09/10 05:04:12;;;;;;;48.60;35.97;;;;;;;-145.18;100.00;46654.53;5087715;28;20027;-61
2023/09/10 05:06:38;;;;;;;51.00;38.00;;;;;;;-145.18;100.00;46652.59;5088474;28;20391;-61
2023/09/10 05:09:04;;;;;;;52.13;37.73;;;;;;;-145.18;100.00;46654.53;5089250;28;20044;-61
2023/09/10 05:11:29;;;;;;;48.10;36.80;;;;;;;-145.18;100.00;46650.63;5089426;28;20031;-61
2023/09/10 05:13:54;;;;;;;50.73;37.23;;;;;;;-145.18;100.00;46652.59;5090152;28;20056;-61
2023/09/10 05:16:20;;;;;;;51.67;36.83;;;;;;;-145.18;100.00;46650.63;5081472;28;20544;-61
2023/09/10 05:18:46;;;;;;;49.60;38.50;;;;;;;-145.18;100.00;46652.59;5093892;28;20106;-61
2023/09/10 05:21:12;;;;;;;49.80;37.17;;;;;;;-145.18;100.00;46642.81;5089669;28;20051;-61
2023/09/10 05:23:37;;;;;;;56.87;39.07;;;;;;;-145.18;100.00;46638.91;5069397;28;20066;-61
2023/09/10 05:26:03;;;;;;;50.93;38.20;;;;;;;-145.18;100.00;46656.50;5089987;28;20047;-61
2023/09/10 05:28:29;;;;;;;51.13;37.10;;;;;;;-145.18;100.00;46642.81;5112348;27;20387;-61
2023/09/10 05:30:55;;;;;;;49.50;36.70;;;;;;;-145.18;100.00;46642.81;5083963;28;20020;-61
2023/09/10 05:33:20;;;;;;;52.37;37.10;;;;;;;-145.18;100.00;46652.59;5081862;28;20027;-61
2023/09/10 05:35:56;;;;;;;51.60;38.43;;;;;;;-145.18;100.00;46650.63;5088262;28;20107;-61
2023/09/10 05:38:21;;;;;;;52.07;38.13;;;;;;;-145.18;100.00;46654.53;5084100;28;20028;-61
2023/09/10 05:40:47;;;;;;;54.23;39.63;;;;;;;-145.18;100.00;46652.59;5080990;28;20028;-61
2023/09/10 05:43:12;;;;;;;55.33;41.07;;;;;;;-145.18;100.00;46652.59;5087697;28;20103;-61
2023/09/10 05:45:37;;;;;;;58.93;40.53;;;;;;;-145.18;100.00;46650.63;5084417;28;20089;-61
2023/09/10 05:48:03;;;;;;;52.70;40.27;;;;;;;-145.18;100.00;46656.50;5084625;28;20067;-61
2023/09/10 05:50:29;;;;;;;50.77;39.67;;;;;;;-145.18;100.00;46640.88;5085779;28;20380;-61
2023/09/10 05:52:56;;;;;;;50.70;39.23;;;;;;;-145.18;100.00;46656.50;5088439;28;20031;-61
2023/09/10 05:55:23;;;;;;;53.43;39.97;;;;;;;-145.18;100.00;46652.59;5078801;28;20028;-61
2023/09/10 05:57:48;;;;;;;54.27;39.20;;;;;;;-145.18;100.00;46652.59;5078391;28;20403;-61
2023/09/10 06:00:14;;;;;;;57.47;40.33;;;;;;;-145.18;100.00;46652.59;5076778;28;20032;-61
2023/09/10 06:02:40;;;;;;;53.73;39.87;;;;;;;-145.18;100.00;46652.59;5090222;28;20569;-61
2023/09/10 06:05:05;;;;;;;53.70;39.40;;;;;;;-145.18;100.00;46654.53;5082627;28;20052;-61
2023/09/10 06:07:30;;;;;;;62.63;41.37;;;;;;;-145.18;100.00;46654.53;5079016;28;20023;-61
2023/09/10 06:09:56;;;;;;;53.57;39.67;;;;;;;-145.18;100.00;46652.59;5079806;28;20025;-60
2023/09/10 06:12:21;;;;;;;58.73;41.20;;;;;;;-145.18;100.00;46654.53;5091784;28;20547;-60
2023/09/10 06:14:47;;;;;;;57.23;40.83;;;;;;;-145.18;100.00;46654.53;5078780;28;20081;-60
2023/09/10 06:17:12;;;;;;;62.40;42.30;;;;;;;-145.18;100.00;46652.59;5082199;28;20069;-60
2023/09/10 06:19:37;;;;;;;62.87;44.73;;;;;;;-145.18;100.00;46650.63;5076127;28;20063;-61
2023/09/10 06:22:03;;;;;;;55.97;42.07;;;;;;;-145.18;100.00;46656.50;5070726;28;20098;-60
2023/09/10 06:24:29;;;;;;;64.30;45.40;;;;;;;-145.18;100.00;46654.53;5072150;28;20105;-60
2023/09/10 06:26:55;;;;;;;62.57;43.20;;;;;;;-145.18;100.00;46656.50;5091162;28;20031;-60
2023/09/10 06:29:20;;;;;;;56.77;42.97;;;;;;;-145.18;100.00;46656.50;5086154;28;20085;-60
2023/09/10 06:31:45;;;;;;;63.43;45.03;;;;;;;-145.18;100.00;46656.50;5077689;28;20464;-60
2023/09/10 06:34:11;;;;;;;62.53;45.17;;;;;;;-145.18;100.00;46658.44;5072260;28;20060;-60
2023/09/10 06:36:36;;;;;;;69.50;47.23;;;;;;;-145.18;100.00;46656.50;5079901;28;20036;-60
2023/09/10 06:39:03;;;;;;;65.07;45.63;;;;;;;-145.18;100.00;46652.59;5075455;28;20088;-60
2023/09/10 06:41:28;;;;;;;64.07;46.07;;;;;;;-145.18;100.00;46660.41;5076780;28;20553;-60
2023/09/10 06:43:53;;;;;;;63.83;46.07;;;;;;;-145.18;100.00;46656.50;5079072;28;20059;-60
2023/09/10 06:46:19;;;;;;;64.07;45.67;;;;;;;-145.18;100.00;46658.44;5078556;28;20041;-60
2023/09/10 06:48:44;;;;;;;68.33;45.37;;;;;;;-145.18;100.00;46654.53;5084249;28;20484;-60
2023/09/10 06:51:09;;;;;;;64.27;44.40;;;;;;;-145.18;100.00;46660.41;5086559;28;20027;-60
2023/09/10 06:53:35;;;;;;;61.43;44.73;;;;;;;-145.18;100.00;46660.41;5089171;28;20476;-60
2023/09/10 06:56:00;;;;;;;64.10;45.97;;;;;;;-145.18;100.00;46660.41;5078184;28;20036;-61
2023/09/10 06:58:26;;;;;;;65.80;46.17;;;;;;;-145.18;100.00;46658.44;5088071;28;20058;-60
2023/09/10 07:00:51;;;;;;;62.67;46.10;;;;;;;-145.18;100.00;46660.41;5088595;28;20401;-61
2023/09/10 07:03:17;;;;;;;64.80;48.13;;;;;;;-145.18;100.00;46660.41;5092101;28;20036;-60
2023/09/10 07:05:43;;;;;;;65.93;47.00;;;;;;;-145.18;100.00;46660.41;5080178;28;20058;-60
2023/09/10 07:08:10;;;;;;;65.70;46.93;;;;;;;-145.18;100.00;46660.41;5095813;28;20039;-60
2023/09/10 07:10:37;;;;;;;66.13;47.37;;;;;;;-145.18;100.00;46660.41;5075828;28;20024;-60
2023/09/10 07:13:05;;;;;;;66.57;46.83;;;;;;;-145.18;100.00;46660.41;5078216;28;20479;-60
2023/09/10 07:15:31;;;;;;;62.67;45.90;;;;;;;-145.18;100.00;46660.41;5081933;28;20028;-61
2023/09/10 07:17:56;;;;;;;62.77;46.57;;;;;;;-145.18;100.00;46625.22;5094953;28;20097;-60
2023/09/10 07:20:21;;;;;;;61.63;46.47;;;;;;;-145.18;100.00;46660.41;5099000;28;20038;-60
2023/09/10 07:22:47;;;;;;;62.27;45.10;;;;;;;-145.18;100.00;46627.19;5091187;28;20420;-60
2023/09/10 07:25:12;;;;;;;62.70;45.77;;;;;;;-145.18;100.00;46625.22;5089873;28;20115;-60
2023/09/10 07:27:37;;;;;;;62.07;45.63;;;;;;;-145.18;100.00;46625.22;5088802;28;20483;-61
2023/09/10 07:30:04;;;;;;;61.03;42.57;;;;;;;-145.18;100.00;46631.09;5087703;28;20102;-60
2023/09/10 07:32:29;;;;;;;58.73;45.13;;;;;;;-145.18;100.00;46623.28;5092569;28;20084;-60
2023/09/10 07:34:54;;;;;;;61.33;41.87;;;;;;;-145.18;100.00;46631.09;5089517;28;20076;-60
2023/09/10 07:37:20;;;;;;;55.10;41.30;;;;;;;-145.18;100.00;46633.06;5095251;28;20081;-60
2023/09/10 07:39:45;;;;;;;55.83;41.50;;;;;;;-145.18;100.00;46627.19;5091700;28;20075;-60
2023/09/10 07:42:11;;;;;;;55.83;41.97;;;;;;;-145.18;100.00;46629.13;5087839;28;20028;-60
2023/09/10 07:44:36;;;;;;;57.33;39.87;;;;;;;-145.18;100.00;46629.13;5082493;28;20042;-60
2023/09/10 07:47:01;;;;;;;53.33;40.90;;;;;;;-145.18;100.00;46635.00;5089045;28;20023;-60
2023/09/10 07:49:28;;;;;;;53.10;40.93;;;;;;;-145.18;100.00;46627.19;5091985;28;20119;-60
2023/09/10 07:51:53;;;;;;;54.40;42.10;;;;;;;-145.18;100.00;46629.13;5086312;28;20028;-60
2023/09/10 07:54:19;;;;;;;57.47;40.07;;;;;;;-145.18;100.00;46635.00;5091934;28;20105;-60
2023/09/10 07:56:45;;;;;;;54.47;39.40;;;;;;;-145.18;100.00;46633.06;5092521;28;20038;-60
2023/09/10 07:59:11;;;;;;;54.15;40.53;;;;;;;-145.18;100.00;46629.13;5091592;28;20034;-60
2023/09/10 08:01:40;;;;;;;52.88;39.38;;;;;;;-145.18;100.00;46633.06;5085064;28;20115;-60
2023/09/10 08:04:06;;;;;;;54.78;39.08;;;;;;;-145.18;100.00;46633.06;5088278;28;20079;-60
2023/09/10 08:06:32;;;;;;;57.72;38.67;;;;;;;-145.18;100.00;46629.13;5087370;28;20480;-60
2023/09/10 08:08:58;;;;;;;53.00;40.25;;;;;;;-145.18;100.00;46636.94;5094846;28;20123;-60
2023/09/10 08:11:23;;;;;;;54.15;36.03;;;;;;;-145.18;100.00;46633.06;5094877;28;20024;-60
2023/09/10 08:13:50;;;;;;;51.03;35.10;;;;;;;-145.18;100.00;46636.94;5088385;28;20035;-60
2023/09/10 08:16:17;;;;;;;39.13;29.60;;;;;;;-145.18;100.00;46633.06;5083648;28;20040;-60
2023/09/10 08:18:44;;;;;;;45.28;32.67;;;;;;;-145.18;100.00;46640.88;5093163;28;20036;-61
2023/09/10 08:21:10;;;;;;;46.80;33.58;;;;;;;-145.18;100.00;46640.88;5093092;28;20028;-61
2023/09/10 08:23:36;;;;;;;44.20;33.60;;;;;;;-145.18;100.00;46640.88;5083075;28;20028;-61
2023/09/10 08:26:02;;;;;;;44.20;31.52;;;;;;;-145.18;100.00;46646.72;5092944;28;20054;-61
2023/09/10 08:28:27;;;;;;;37.95;27.83;;;;;;;-145.18;100.00;46638.91;5092863;28;20035;-60
2023/09/10 08:30:54;;;;;;;39.85;29.65;;;;;;;-145.18;100.00;46646.72;5093446;28;20043;-60
2023/09/10 08:33:21;;;;;;;41.28;29.52;;;;;;;-145.18;100.00;46650.63;5084355;28;20055;-68
2023/09/10 08:35:49;;;;;;;40.13;30.85;;;;;;;-145.18;100.00;46654.53;5081361;28;20397;-68
2023/09/10 08:38:15;;;;;;;40.83;29.73;;;;;;;-145.18;100.00;46652.59;5088569;28;20162;-68
2023/09/10 08:41:00;;;;;;;40.90;30.00;;;;;;;-145.18;100.00;46652.59;5090038;28;20036;-68
2023/09/10 08:43:50;;;;;;;36.67;28.10;;;;;;;-145.18;100.00;46648.69;5084447;28;20031;-68
2023/09/10 08:46:15;;;;;;;34.25;26.27;;;;;;;-145.18;100.00;46654.53;5084783;28;20059;-68
2023/09/10 08:48:41;;;;;;;36.97;27.58;;;;;;;-145.18;100.00;46652.59;5085587;28;20099;-67
2023/09/10 08:51:14;;;;;;;36.05;27.45;;;;;;;-145.18;100.00;46662.34;5082675;28;20119;-68
2023/09/10 08:53:40;;;;;;;38.17;23.58;;;;;;;-145.18;100.00;46654.53;5080948;28;20034;-68
2023/09/10 08:56:06;;;;;;;32.35;23.90;;;;;;;-145.18;100.00;46662.34;5087953;28;20107;-68
2023/09/10 08:58:32;;;;;;;28.45;22.80;;;;;;;-145.18;100.00;46664.31;5077638;28;20583;-68
2023/09/10 09:01:00;;;;;;;31.10;23.35;;;;;;;-145.18;100.00;46666.25;5087499;28;20071;-68
2023/09/10 09:03:26;;;;;;;35.60;24.77;;;;;;;-145.18;100.00;46662.34;5082844;28;20494;-68
2023/09/10 09:05:54;;;;;;;32.17;24.10;;;;;;;-145.18;100.00;46662.34;5082302;28;20384;-68
2023/09/10 09:08:28;;;;;;;31.15;23.88;;;;;;;-145.18;100.00;46670.16;5077421;28;20074;-68
2023/09/10 09:10:54;;;;;;;31.70;23.02;;;;;;;-145.18;100.00;46670.16;5089589;28;20477;-68
2023/09/10 09:13:21;;;;;;;36.00;22.98;;;;;;;-145.18;100.00;46672.13;5093102;28;20123;-68
2023/09/10 09:15:48;;;;;;;27.35;22.55;;;;;;;-145.18;100.00;46670.16;5094903;28;20035;-68
2023/09/10 09:18:15;;;;;;;30.20;22.48;;;;;;;-145.18;100.00;46670.16;5081163;28;20016;-68
2023/09/10 09:20:44;;;;;;;29.27;21.85;;;;;;;-145.18;100.00;46672.13;5101136;28;20020;-68
2023/09/10 09:23:18;;;;;;;28.58;21.88;;;;;;;-145.18;100.00;46674.06;5088790;28;20119;-68
2023/09/10 09:25:44;;;;;;;30.38;20.75;;;;;;;-145.18;100.00;46668.22;5084849;28;20099;-68
2023/09/10 09:28:10;;;;;;;26.20;21.08;;;;;;;-145.18;100.00;46666.25;5090906;28;20040;-68
2023/09/10 09:30:36;;;;;;;24.83;20.58;;;;;;;-145.18;100.00;46664.31;5088776;28;20043;-68
2023/09/10 09:33:01;;;;;;;26.05;19.85;;;;;;;-145.18;100.00;46638.91;5089773;28;20055;-68
2023/09/10 09:35:27;;;;;;;23.48;19.63;;;;;;;-145.18;100.00;46670.16;5089256;28;20032;-68
2023/09/10 09:37:52;;;;;;;24.88;17.90;;;;;;;-145.18;100.00;46668.22;5085806;28;20495;-68
2023/09/10 09:40:21;;;;;;;20.77;17.10;;;;;;;-145.18;100.00;46603.75;5085489;28;20424;-68
2023/09/10 09:42:47;;;;;;;28.70;17.98;;;;;;;-145.18;100.00;46597.88;5091103;28;20032;-68
2023/09/10 09:45:12;;;;;;;22.98;17.15;;;;;;;-145.18;100.00;46562.72;5078236;28;20157;-61
2023/09/10 09:47:38;;;;;;;22.23;16.98;;;;;;;-145.18;100.00;46607.66;5084702;28;20024;-61
2023/09/10 09:50:04;;;;;;;23.25;16.05;;;;;;;-145.18;100.00;46564.69;5081133;28;20036;-61
2023/09/10 09:52:30;;;;;;;22.42;16.45;;;;;;;-145.18;100.00;46558.81;5082071;28;20475;-61
2023/09/10 09:54:55;;;;;;;21.38;15.95;;;;;;;-145.18;100.00;46535.38;5083285;28;20040;-61
2023/09/10 09:57:21;;;;;;;23.48;15.02;;;;;;;-145.18;100.00;46543.19;5089973;28;20166;-61
2023/09/10 09:59:48;;;;;;;19.95;15.57;;;;;;;-145.18;100.00;46531.47;5086676;28;20029;-61
2023/09/10 10:02:17;;;;;;;21.42;14.13;;;;;;;-145.18;100.00;46533.44;5082954;28;20043;-61
2023/09/10 10:04:43;;;;;;;21.25;14.55;;;;;;;-145.18;100.00;46521.72;5091054;28;20080;-61
2023/09/10 10:07:11;;;;;;;16.90;13.32;;;;;;;-145.18;100.00;46510.00;5087570;28;20031;-61
2023/09/10 10:09:39;;;;;;;20.50;12.68;;;;;;;-145.18;100.00;46490.47;5080390;28;20032;-61
2023/09/10 10:12:06;;;;;;;18.38;11.38;;;;;;;-145.18;100.00;46500.22;5084285;28;20031;-62
2023/09/10 10:14:33;;;;;;;19.98;13.75;;;;;;;-145.18;100.00;46498.28;5090701;28;20107;-62
2023/09/10 10:17:03;;;;;;;16.80;11.57;;;;;;;-145.18;100.00;46496.31;5079104;28;20043;-61
2023/09/10 10:19:30;;;;;;;23.73;12.50;;;;;;;-145.18;100.00;46480.69;5081401;28;20028;-62
2023/09/10 10:21:56;;;;;;;17.65;12.25;;;;;;;-145.18;100.00;46494.38;5090662;28;20372;-62
2023/09/10 10:24:21;;;;;;;14.88;10.65;;;;;;;-145.18;100.00;46478.75;5079965;28;20098;-62
2023/09/10 10:26:48;;;;;;;19.75;10.15;;;;;;;-145.18;100.00;46433.81;5117898;27;20028;-61
2023/09/10 10:29:17;;;;;;;16.98;11.45;;;;;;;-145.18;100.00;46531.47;5084471;28;20028;-62
2023/09/10 10:31:47;;;;;;;17.45;10.40;;;;;;;-145.18;100.00;46443.59;5093069;28;20085;-62
2023/09/10 10:34:20;;;;;;;17.25;9.85;;;;;;;-145.18;100.00;46484.59;5082548;28;20027;-62
2023/09/10 10:37:07;;;;;;;10.68;7.55;;;;;;;-145.18;100.00;46754.16;5084528;28;20028;-62
2023/09/10 10:39:41;;;;;;;13.98;9.68;;;;;;;-145.18;100.00;46435.78;5077395;28;20036;-62
2023/09/10 10:42:10;;;;;;;12.82;8.90;;;;;;;-145.18;100.00;46470.94;5084391;28;20028;-62
2023/09/10 10:44:38;;;;;;;11.95;8.52;;;;;;;-145.18;100.00;46734.63;5083255;28;20024;-62
2023/09/10 10:47:18;;;;;;;9.02;6.97;;;;;;;-145.18;100.00;46763.91;5087752;28;20487;-61
2023/09/10 10:50:02;;;;;;;7.80;6.63;;;;;;;-145.18;100.00;46971.00;5080034;28;20495;-62
2023/09/10 10:52:31;;;;;;;10.50;7.30;;;;;;;-145.18;100.00;46959.25;5079226;28;20377;-61